CDT,Max TemperatureF,Mean TemperatureF,Min TemperatureF,Max Dew PointF,MeanDew PointF,Min DewpointF,Max Humidity, Mean Humidity, Min Humidity, Max Sea Level PressureIn, Mean Sea Level PressureIn, Min Sea Level PressureIn, Max VisibilityMiles, Mean VisibilityMiles, Min VisibilityMiles, Max Wind SpeedMPH, Mean Wind SpeedMPH, Max Gust SpeedMPH,PrecipitationIn, CloudCover, Events, WindDirDegrees
2013-7-1,88,76,66,60,56,50,79,50,30,29.98,29.93,29.89,10,10,10,13,5,22,0.00,1,,13
2013-7-2,88,74,62,60,54,46,90,52,25,30.05,30.01,29.98,10,9,7,13,4,20,0.00,1,,324
2013-7-3,87,74,62,59,54,49,84,51,30,30.10,30.05,29.99,10,10,8,10,5,,0.00,0,,113
2013-7-4,91,76,62,60,56,49,84,52,25,30.05,30.01,29.95,10,10,8,8,3,,0.00,1,,125
2013-7-5,93,78,62,61,57,53,86,51,27,30.05,29.99,29.94,10,9,5,9,2,16,0.00,1,,123
2013-7-6,93,80,66,67,63,54,90,61,27,30.03,29.98,29.93,10,10,8,12,5,17,0.00,0,,112
2013-7-7,95,83,73,71,67,65,82,61,39,30.06,30.01,29.97,10,10,10,10,5,,0.00,0,,130
2013-7-8,95,83,73,72,70,67,90,65,42,30.15,30.08,30.03,10,10,10,9,4,,0.00,2,,188
2013-7-9,97,86,75,71,68,65,79,56,37,30.13,30.06,29.99,10,10,10,13,4,17,0.00,1,,235
2013-7-10,100,86,73,72,70,67,94,66,38,30.05,29.99,29.91,10,9,2,17,3,26,0.32,3,Rain-Thunderstorm,231
2013-7-11,96,83,71,74,71,64,96,70,46,29.97,29.94,29.88,10,10,10,17,4,29,0.00,2,Thunderstorm,243
2013-7-12,93,82,71,72,59,45,87,50,20,30.05,29.99,29.94,10,10,10,10,6,17,0.00,0,,88
2013-7-13,91,76,63,62,57,50,90,53,25,30.04,29.99,29.95,10,10,10,9,2,,0.00,0,,106
2013-7-14,90,78,66,71,63,56,87,63,35,30.03,29.99,29.95,10,10,10,10,3,18,0.08,0,Thunderstorm,104
2013-7-15,93,80,70,70,68,65,90,68,41,30.14,30.08,30.01,10,10,10,12,6,17,0.00,2,,115
2013-7-16,93,83,73,71,69,65,91,64,39,30.23,30.18,30.14,10,10,10,13,4,22,0.00,1,,106
2013-7-17,96,84,73,70,67,63,87,57,34,30.28,30.22,30.15,10,10,10,10,5,18,0.00,0,,106
2013-7-18,98,84,72,72,68,63,93,68,34,30.19,30.11,30.02,10,10,8,20,2,28,0.07,1,Rain-Thunderstorm,135
2013-7-19,91,80,71,75,71,69,97,81,52,30.08,30.01,29.95,10,9,1,8,2,,0.18,3,Rain-Thunderstorm,250
2013-7-20,93,82,72,73,70,66,94,72,41,29.98,29.94,29.86,10,10,7,9,2,16,0.00,1,Thunderstorm,282
2013-7-21,91,82,73,73,71,69,87,68,50,29.98,29.92,29.87,10,10,10,13,5,23,0.00,1,Thunderstorm,205
2013-7-22,95,84,75,74,72,71,89,70,49,29.98,29.92,29.86,10,10,10,13,6,18,0.00,3,,241
2013-7-23,100,85,71,74,71,68,96,78,42,29.98,29.91,29.84,10,8,1,24,6,37,0.90,3,Rain-Thunderstorm,236
2013-7-24,90,78,69,72,69,66,100,81,49,30.01,29.94,29.84,10,8,3,10,3,17,0.65,3,Rain-Thunderstorm,324
2013-7-25,86,78,73,72,68,64,94,72,54,30.09,30.04,29.98,10,10,8,7,2,,0.00,3,,124
2013-7-26,75,70,68,70,66,62,96,88,66,30.10,30.02,29.93,10,6,1,14,5,16,1.08,6,Rain,102
2013-7-27,88,76,66,69,65,62,96,74,44,30.01,29.97,29.91,10,10,5,10,4,,0.08,5,Rain,41
2013-7-28,89,78,68,70,66,59,90,67,49,30.04,29.99,29.96,10,10,10,8,3,,0.00,0,,106
2013-7-29,90,80,70,74,71,67,90,75,57,30.09,30.05,30.02,10,10,10,9,6,,0.00,3,,120
2013-7-30,86,81,78,75,73,70,88,74,65,30.09,30.05,30.01,10,10,9,10,5,18,0.00,3,Rain,207
2013-7-31,93,83,75,77,74,70,94,81,55,30.09,30.02,29.93,10,9,2,13,4,18,0.08,4,Rain-Thunderstorm,195